Time;durP1;ratioP1;P1;durP2;ratioP2;P2;SDS_P1;SDS_P2;PMS_P1;PMS_P2;Temp;Humidity;BMP_temperature;BMP_pressure;BME280_temperature;BME280_humidity;BME280_pressure;Samples;Min_cycle;Max_cycle;Signal;HPM_P1;HPM_P2
2023/08/19 00:00:15;;;;;;;60.63;8.67;;;;;;;27.01;58.48;99527.69;7307292;19;129484;-40
2023/08/19 00:02:44;;;;;;;64.05;8.65;;;;;;;27.18;57.66;99525.75;7308303;19;128827;-39
2023/08/19 00:05:10;;;;;;;91.35;10.68;;;;;;;27.26;57.17;99509.84;7302404;19;130259;-38
2023/08/19 00:07:36;;;;;;;70.13;8.65;;;;;;;27.74;56.16;99519.97;7302973;19;131518;-39
2023/08/19 00:10:03;;;;;;;62.10;8.40;;;;;;;27.69;56.27;99523.19;7304690;19;129768;-38
2023/08/19 00:12:29;;;;;;;152.35;14.45;;;;;;;27.73;55.67;99521.00;7299657;19;130812;-39
2023/08/19 00:14:55;;;;;;;116.17;12.10;;;;;;;27.80;54.88;99511.34;7291987;19;130290;-37
2023/08/19 00:17:22;;;;;;;57.17;8.23;;;;;;;27.83;55.52;99530.28;7298384;19;131089;-39
2023/08/19 00:19:48;;;;;;;77.00;9.18;;;;;;;27.78;55.58;99526.56;7304380;19;129173;-39
2023/08/19 00:22:13;;;;;;;77.60;9.13;;;;;;;27.89;55.41;99534.03;7308350;19;129002;-37
2023/08/19 00:24:39;;;;;;;43.53;7.90;;;;;;;27.98;55.02;99527.69;7305444;19;129156;-40
2023/08/19 00:27:04;;;;;;;84.20;10.13;;;;;;;27.68;55.51;99524.19;7306562;19;129563;-40
2023/08/19 00:29:29;;;;;;;60.20;8.33;;;;;;;27.68;56.12;99512.78;7304718;19;129104;-41
2023/08/19 00:31:55;;;;;;;70.77;9.70;;;;;;;27.74;55.73;99519.97;7305362;19;129455;-40
2023/08/19 00:34:21;;;;;;;59.43;8.60;;;;;;;27.71;55.59;99523.81;7302779;19;130398;-39
2023/08/19 00:36:46;;;;;;;83.63;9.33;;;;;;;27.81;55.41;99531.47;7306884;19;129389;-41
2023/08/19 00:39:12;;;;;;;52.07;7.97;;;;;;;27.43;56.92;99527.22;7308173;19;129178;-39
2023/08/19 00:41:38;;;;;;;54.07;9.03;;;;;;;27.51;56.31;99519.22;7307231;19;129499;-39
2023/08/19 00:44:03;;;;;;;65.40;8.53;;;;;;;27.85;55.61;99515.06;7300156;19;129207;-40
2023/08/19 00:46:30;;;;;;;72.03;9.87;;;;;;;27.81;55.60;99515.63;7307898;19;129663;-36
2023/08/19 00:48:56;;;;;;;61.42;9.10;;;;;;;27.71;55.55;99515.91;7306690;19;129067;-38
2023/08/19 00:51:22;;;;;;;48.75;8.30;;;;;;;27.55;56.22;99520.53;7307680;19;129293;-39
2023/08/19 00:53:47;;;;;;;53.57;9.30;;;;;;;27.20;57.08;99527.25;7305467;19;129597;-40
2023/08/19 00:56:13;;;;;;;54.53;8.80;;;;;;;27.09;57.18;99497.81;7306085;19;129579;-39
2023/08/19 00:58:39;;;;;;;52.97;8.50;;;;;;;27.38;56.78;99514.56;7307975;19;129165;-40
2023/08/19 01:01:05;;;;;;;55.53;8.30;;;;;;;27.31;56.84;99508.34;7307285;19;129000;-41
2023/08/19 01:03:30;;;;;;;52.80;8.77;;;;;;;27.25;57.05;99503.78;7306031;19;130064;-39
2023/08/19 01:06:06;;;;;;;93.90;11.13;;;;;;;27.28;57.02;99507.88;7306614;19;129614;-38
2023/08/19 01:08:46;;;;;;;53.93;7.97;;;;;;;27.40;56.60;99501.19;7305816;19;129361;-35
2023/08/19 01:11:34;;;;;;;50.03;8.50;;;;;;;27.56;56.47;99501.03;7308183;19;129524;-38
2023/08/19 01:14:10;;;;;;;51.08;8.52;;;;;;;27.47;56.71;99507.41;7304392;19;129300;-36
2023/08/19 01:16:39;;;;;;;34.93;7.50;;;;;;;27.50;56.11;99501.75;7307602;19;129861;-37
2023/08/19 01:19:07;;;;;;;87.50;11.05;;;;;;;27.41;56.90;99500.19;7295458;19;129314;-38
2023/08/19 01:21:34;;;;;;;105.50;12.13;;;;;;;27.52;56.19;99499.75;7293226;19;130261;-33
2023/08/19 01:23:59;;;;;;;;;;;;;;;27.60;55.74;99505.75;7292713;19;130071;-40
2023/08/19 01:26:25;;;;;;;102.82;12.13;;;;;;;27.36;56.19;99495.44;7292169;19;130575;-38
2023/08/19 01:28:50;;;;;;;125.40;12.70;;;;;;;27.48;56.62;99498.47;7291360;19;130804;-36
2023/08/19 01:31:16;;;;;;;111.10;11.47;;;;;;;27.08;57.65;99490.88;7291848;19;129691;-41
2023/08/19 01:33:41;;;;;;;49.13;8.03;;;;;;;27.30;57.18;99495.34;7295718;19;129718;-38
2023/08/19 01:36:21;;;;;;;47.17;8.27;;;;;;;27.32;56.62;99496.00;7306637;19;129371;-37
2023/08/19 01:39:06;;;;;;;74.45;9.57;;;;;;;27.63;56.09;99496.66;7303076;19;129353;-37
2023/08/19 01:41:32;;;;;;;40.92;7.43;;;;;;;27.54;56.48;99497.72;7305465;19;129861;-38
2023/08/19 01:43:59;;;;;;;57.87;8.77;;;;;;;27.51;55.97;99504.22;7308707;19;130094;-39
2023/08/19 01:46:26;;;;;;;77.93;9.07;;;;;;;27.37;56.34;99498.91;7310583;19;129918;-38
2023/08/19 01:48:51;;;;;;;53.35;8.43;;;;;;;27.36;56.64;99495.44;7309685;19;129367;-37
2023/08/19 01:51:17;;;;;;;105.30;11.33;;;;;;;27.24;56.90;99502.09;7309616;19;129038;-39
2023/08/19 01:53:42;;;;;;;72.30;9.03;;;;;;;27.22;57.05;99493.53;7311266;19;130247;-38
2023/08/19 01:56:09;;;;;;;69.13;9.00;;;;;;;27.33;56.40;99497.63;7308306;19;129606;-37
2023/08/19 01:58:35;;;;;;;33.65;6.90;;;;;;;27.23;57.06;99489.91;7313106;19;129327;-40
2023/08/19 02:01:00;;;;;;;54.90;8.20;;;;;;;27.03;57.80;99493.22;7313217;19;129754;-36
2023/08/19 02:03:26;;;;;;;79.60;10.57;;;;;;;27.06;56.78;99477.03;7310654;19;130008;-39
2023/08/19 02:05:51;;;;;;;71.63;10.13;;;;;;;27.54;56.48;99498.56;7305233;19;129962;-40
2023/08/19 02:08:17;;;;;;;80.27;9.97;;;;;;;27.28;56.61;99497.34;7311550;19;128898;-40
2023/08/19 02:10:45;;;;;;;39.33;7.20;;;;;;;27.03;57.10;99494.03;7311203;19;129711;-38
2023/08/19 02:13:10;;;;;;;86.72;9.80;;;;;;;26.84;57.41;99494.53;7310364;19;130332;-39
2023/08/19 02:15:36;;;;;;;64.33;9.47;;;;;;;26.73;58.20;99493.13;7306457;19;129567;-36
2023/08/19 02:18:01;;;;;;;45.43;8.27;;;;;;;26.96;57.92;99487.03;7312593;19;129391;-40
2023/08/19 02:20:27;;;;;;;59.93;8.90;;;;;;;27.07;57.49;99489.25;7310058;19;129622;-39
2023/08/19 02:22:54;;;;;;;70.00;8.83;;;;;;;27.13;56.97;99488.53;7312168;19;130515;-40
2023/08/19 02:25:19;;;;;;;63.75;9.32;;;;;;;27.23;57.27;99489.09;7306627;19;130187;-39
2023/08/19 02:27:44;;;;;;;67.70;9.87;;;;;;;27.13;57.04;99483.25;7311750;19;129249;-38
2023/08/19 02:30:10;;;;;;;95.27;10.50;;;;;;;26.90;57.50;99488.53;7307433;19;129465;-39
2023/08/19 02:32:39;;;;;;;69.23;8.57;;;;;;;27.12;56.79;99494.81;7311538;19;130472;-40
2023/08/19 02:35:05;;;;;;;65.63;9.00;;;;;;;26.79;57.73;99496.88;7307199;19;129352;-40
2023/08/19 02:37:30;;;;;;;34.80;7.37;;;;;;;26.83;57.27;99493.72;7310797;19;128980;-38
2023/08/19 02:39:55;;;;;;;53.53;8.33;;;;;;;27.33;56.43;99489.69;7310545;19;129710;-37
2023/08/19 02:42:21;;;;;;;101.10;10.80;;;;;;;27.27;56.88;99474.56;7310709;19;129391;-39
2023/08/19 02:44:46;;;;;;;32.33;7.00;;;;;;;26.89;57.23;99484.28;7308714;19;129229;-37
2023/08/19 02:47:12;;;;;;;50.27;7.77;;;;;;;26.98;57.53;99485.84;7310116;19;129150;-38
2023/08/19 02:49:37;;;;;;;90.60;10.17;;;;;;;26.95;57.11;99480.91;7307297;19;129672;-39
2023/08/19 02:52:04;;;;;;;85.80;9.70;;;;;;;26.72;58.21;99493.28;7309895;19;130779;-37
2023/08/19 02:54:29;;;;;;;50.15;8.18;;;;;;;26.71;58.20;99478.44;7307501;19;130903;-41
2023/08/19 02:56:55;;;;;;;48.63;8.07;;;;;;;26.68;57.74;99500.72;7310578;19;129703;-37
2023/08/19 02:59:20;;;;;;;66.17;9.03;;;;;;;26.51;58.40;99499.16;7310618;19;129793;-37
2023/08/19 03:01:45;;;;;;;53.07;8.17;;;;;;;26.56;58.79;99502.09;7310079;19;130150;-35
2023/08/19 03:04:11;;;;;;;70.20;9.20;;;;;;;27.03;57.41;99493.22;7308801;19;129615;-37
2023/08/19 03:06:36;;;;;;;46.50;7.67;;;;;;;26.47;58.66;99483.84;7308828;19;129515;-40
2023/08/19 03:09:01;;;;;;;73.87;9.67;;;;;;;26.37;58.97;99488.53;7307860;19;129675;-40
2023/08/19 03:11:27;;;;;;;91.30;10.77;;;;;;;26.30;58.72;99469.94;7308520;19;129320;-39
2023/08/19 03:13:53;;;;;;;48.78;8.50;;;;;;;26.32;58.62;99489.03;7307845;19;129558;-41
2023/08/19 03:16:18;;;;;;;83.00;11.10;;;;;;;26.54;58.62;99487.44;7303488;19;130247;-43
2023/08/19 03:18:44;;;;;;;146.53;14.23;;;;;;;26.45;58.35;99473.47;7292556;19;131711;-40
2023/08/19 03:21:09;;;;;;;52.63;8.70;;;;;;;26.67;57.96;99499.09;7307757;19;130144;-42
2023/08/19 03:23:34;;;;;;;35.90;7.60;;;;;;;27.07;57.11;99495.34;7309271;19;130063;-37
2023/08/19 03:26:00;;;;;;;62.77;9.80;;;;;;;26.66;57.80;99497.44;7297176;19;129747;-41
2023/08/19 03:28:25;;;;;;;62.40;8.77;;;;;;;26.58;58.16;99494.81;7308762;19;129407;-41
2023/08/19 03:30:51;;;;;;;88.00;10.57;;;;;;;26.73;57.14;99477.28;7309052;19;129226;-41
2023/08/19 03:33:16;;;;;;;101.70;11.77;;;;;;;26.60;57.97;99498.13;7293114;19;130805;-40
2023/08/19 03:35:42;;;;;;;58.60;8.43;;;;;;;26.80;57.38;99496.69;7305616;19;128807;-40
2023/08/19 03:38:08;;;;;;;66.97;8.83;;;;;;;26.57;57.53;99505.56;7309326;19;130736;-40
2023/08/19 03:40:33;;;;;;;67.50;9.03;;;;;;;26.82;57.50;99505.25;7306714;19;130106;-37
2023/08/19 03:42:58;;;;;;;87.63;10.17;;;;;;;26.98;56.35;99516.69;7307650;19;129987;-41
2023/08/19 03:45:24;;;;;;;67.07;9.23;;;;;;;26.76;57.35;99513.88;7305568;19;129612;-37
2023/08/19 03:47:49;;;;;;;48.20;8.80;;;;;;;26.82;57.05;99521.06;7307223;19;131722;-39
2023/08/19 03:50:15;;;;;;;49.53;7.60;;;;;;;27.32;55.51;99510.00;7306238;19;130464;-34
2023/08/19 03:52:40;;;;;;;54.30;8.93;;;;;;;27.06;56.95;99521.88;7308801;19;130345;-37
2023/08/19 03:55:06;;;;;;;82.60;9.33;;;;;;;26.72;57.00;99512.59;7304885;19;130086;-37
2023/08/19 03:57:31;;;;;;;79.90;10.18;;;;;;;26.51;58.21;99504.41;7309043;19;129478;-41
2023/08/19 03:59:57;;;;;;;82.73;10.27;;;;;;;26.62;57.90;99517.22;7308616;19;129510;-39
2023/08/19 04:02:22;;;;;;;108.53;12.00;;;;;;;26.50;58.01;99502.78;7307284;19;130247;-38
2023/08/19 04:05:05;;;;;;;100.40;10.70;;;;;;;26.58;58.33;99518.56;7303221;19;129319;-36
2023/08/19 04:07:30;;;;;;;61.17;8.95;;;;;;;26.45;58.15;99520.09;7306239;19;130377;-37
2023/08/19 04:09:56;;;;;;;80.13;10.47;;;;;;;26.40;58.48;99520.63;7307316;19;129361;-37
2023/08/19 04:12:23;;;;;;;100.57;12.27;;;;;;;26.45;58.54;99526.22;7302313;19;129238;-36
2023/08/19 04:14:49;;;;;;;64.65;9.02;;;;;;;26.89;56.92;99523.84;7307230;19;129610;-36
2023/08/19 04:17:15;;;;;;;73.87;9.67;;;;;;;26.53;57.61;99528.81;7307632;19;129511;-35
2023/08/19 04:19:40;;;;;;;46.07;8.03;;;;;;;26.44;58.46;99535.13;7308368;19;129473;-40
2023/08/19 04:22:05;;;;;;;32.83;7.00;;;;;;;26.46;57.76;99537.59;7308079;19;129665;-39
2023/08/19 04:24:32;;;;;;;56.73;8.93;;;;;;;26.45;57.74;99530.66;7306905;19;129095;-36
2023/08/19 04:26:57;;;;;;;;;;;;;;;26.36;58.37;99523.81;7308680;19;129312;-39
2023/08/19 04:29:23;;;;;;;48.92;7.95;;;;;;;26.49;57.78;99535.44;7306469;19;129301;-37
2023/08/19 04:31:48;;;;;;;60.70;8.77;;;;;;;26.43;58.64;99528.19;7302767;19;129971;-32
2023/08/19 04:34:13;;;;;;;69.37;9.47;;;;;;;26.70;57.68;99537.47;7303873;19;130126;-36
2023/08/19 04:36:39;;;;;;;46.20;8.43;;;;;;;26.50;58.30;99544.97;7304110;19;130543;-35
2023/08/19 04:39:07;;;;;;;96.40;10.73;;;;;;;26.37;58.56;99534.16;7302795;19;131329;-36
2023/08/19 04:41:33;;;;;;;47.97;8.10;;;;;;;26.38;59.00;99550.78;7306922;19;130865;-36
2023/08/19 04:43:59;;;;;;;76.15;8.82;;;;;;;26.24;58.89;99536.53;7305987;19;129575;-37
2023/08/19 04:46:24;;;;;;;83.10;9.97;;;;;;;26.31;59.01;99550.66;7306698;19;129888;-37
2023/08/19 04:48:49;;;;;;;69.43;9.47;;;;;;;26.46;57.86;99548.94;7306357;19;129541;-35
2023/08/19 04:51:15;;;;;;;51.80;7.90;;;;;;;26.23;59.24;99549.88;7305868;19;130095;-36
2023/08/19 04:53:40;;;;;;;57.23;8.50;;;;;;;26.43;58.24;99548.47;7307533;19;129981;-43
2023/08/19 04:56:06;;;;;;;59.60;8.07;;;;;;;26.43;58.61;99545.81;7307327;19;130957;-38
2023/08/19 04:58:31;;;;;;;59.73;8.43;;;;;;;26.59;57.78;99541.28;7308137;19;130703;-40
2023/08/19 05:00:56;;;;;;;58.83;9.03;;;;;;;26.60;57.77;99548.22;7306230;19;130137;-40
2023/08/19 05:03:22;;;;;;;72.67;9.57;;;;;;;26.53;57.75;99549.06;7307894;19;129751;-39
2023/08/19 05:05:48;;;;;;;47.00;7.67;;;;;;;26.41;57.88;99546.00;7307382;19;129279;-36
2023/08/19 05:08:14;;;;;;;69.25;9.23;;;;;;;26.32;58.33;99549.69;7306679;19;130804;-36
2023/08/19 05:10:39;;;;;;;86.43;10.43;;;;;;;26.35;58.35;99546.69;7300306;19;130511;-37
2023/08/19 05:13:04;;;;;;;103.77;11.03;;;;;;;26.35;58.54;99545.84;7304754;19;129956;-39
2023/08/19 05:15:30;;;;;;;101.43;11.37;;;;;;;26.33;58.42;99559.22;7304200;19;129732;-43
2023/08/19 05:17:56;;;;;;;35.53;7.63;;;;;;;26.17;58.48;99566.34;7312305;19;129621;-39
2023/08/19 05:20:21;;;;;;;62.77;8.70;;;;;;;26.32;59.03;99568.13;7311492;19;131404;-41
2023/08/19 05:22:46;;;;;;;47.37;8.20;;;;;;;26.40;58.74;99568.09;7311995;19;129949;-37
2023/08/19 05:25:12;;;;;;;49.77;8.30;;;;;;;26.18;59.02;99565.38;7312217;19;129251;-40
2023/08/19 05:27:37;;;;;;;52.17;8.13;;;;;;;26.37;58.82;99578.16;7306991;19;130348;-37
2023/08/19 05:30:07;;;;;;;138.30;13.87;;;;;;;26.35;58.58;99573.06;7303384;19;130808;-38
2023/08/19 05:32:35;;;;;;;100.53;11.55;;;;;;;26.25;58.75;99568.97;7309632;19;129771;-41
2023/08/19 05:35:00;;;;;;;99.68;11.98;;;;;;;26.22;58.81;99572.78;7303609;19;130216;-37
2023/08/19 05:37:26;;;;;;;76.13;9.47;;;;;;;26.30;58.49;99580.66;7304953;19;130191;-36
2023/08/19 05:39:52;;;;;;;136.60;12.70;;;;;;;27.10;56.54;99578.63;7306674;19;130528;-34
2023/08/19 05:42:18;;;;;;;88.10;10.10;;;;;;;27.51;55.31;99572.06;7313441;19;129193;-37
2023/08/19 05:44:43;;;;;;;88.68;10.32;;;;;;;27.61;55.24;99577.91;7309857;19;129188;-36
2023/08/19 05:47:09;;;;;;;55.93;7.83;;;;;;;27.88;54.05;99580.78;7307564;19;130555;-34
2023/08/19 05:49:35;;;;;;;54.77;7.53;;;;;;;27.87;54.36;99581.78;7311043;19;129999;-33
2023/08/19 05:52:00;;;;;;;53.87;7.17;;;;;;;27.89;53.99;99584.25;7313968;19;129361;-39
2023/08/19 05:54:26;;;;;;;64.67;8.57;;;;;;;27.79;54.19;99581.03;7310775;19;129213;-32
2023/08/19 05:56:51;;;;;;;69.50;8.70;;;;;;;27.87;54.14;99583.59;7310773;19;130205;-38
2023/08/19 05:59:16;;;;;;;80.23;8.67;;;;;;;27.75;54.78;99579.78;7312492;19;129721;-33
2023/08/19 06:01:42;;;;;;;64.17;8.43;;;;;;;27.89;54.37;99581.59;7308857;19;129179;-37
2023/08/19 06:04:07;;;;;;;58.73;7.43;;;;;;;27.95;53.94;99586.19;7308238;19;129161;-37
2023/08/19 06:06:32;;;;;;;64.77;8.07;;;;;;;27.95;54.25;99594.09;7309868;19;130174;-39
2023/08/19 06:08:58;;;;;;;64.57;7.97;;;;;;;27.91;54.61;99592.84;7309874;19;129268;-36
2023/08/19 06:11:23;;;;;;;83.63;9.30;;;;;;;27.89;54.31;99581.59;7311802;19;129459;-38
2023/08/19 06:13:49;;;;;;;72.97;9.20;;;;;;;28.03;54.42;99589.56;7309375;19;129016;-40
2023/08/19 06:16:15;;;;;;;57.25;7.47;;;;;;;27.92;54.25;99576.81;7311351;19;129570;-37
2023/08/19 06:18:41;;;;;;;58.30;7.47;;;;;;;27.74;54.89;99593.97;7311762;19;129290;-36
2023/08/19 06:21:06;;;;;;;51.67;7.20;;;;;;;28.02;54.07;99587.94;7312179;19;130315;-36
2023/08/19 06:23:32;;;;;;;68.37;8.43;;;;;;;28.03;54.01;99599.34;7310033;19;129438;-37
2023/08/19 06:25:58;;;;;;;54.40;6.87;;;;;;;27.92;53.98;99594.47;7310895;19;129493;-37
2023/08/19 06:28:23;;;;;;;84.57;8.87;;;;;;;28.00;54.10;99589.09;7310039;19;129820;-42
2023/08/19 06:30:50;;;;;;;48.53;7.13;;;;;;;27.96;54.51;99585.19;7308903;19;130073;-39
2023/08/19 06:33:16;;;;;;;49.60;6.78;;;;;;;28.03;54.25;99588.78;7311195;19;129603;-38
2023/08/19 06:35:48;;;;;;;51.08;6.63;;;;;;;28.08;53.77;99570.53;7309487;19;129444;-38
2023/08/19 06:38:26;;;;;;;58.15;7.25;;;;;;;28.04;54.09;99591.22;7312043;19;130016;-39
2023/08/19 06:41:09;;;;;;;65.53;7.80;;;;;;;27.94;54.41;99584.56;7311593;19;129170;-41
2023/08/19 06:43:37;;;;;;;67.97;8.00;;;;;;;27.97;54.61;99584.19;7309060;19;129355;-37
2023/08/19 06:46:04;;;;;;;53.92;7.38;;;;;;;27.97;54.23;99584.19;7309029;19;130109;-38
2023/08/19 06:48:31;;;;;;;73.20;8.43;;;;;;;28.03;54.19;99589.56;7310116;19;129792;-38
2023/08/19 06:50:56;;;;;;;;;;;;;;;27.94;55.09;99589.84;7305125;19;130311;-38
2023/08/19 06:53:22;;;;;;;62.97;8.00;;;;;;;27.82;55.14;99583.31;7308651;19;129324;-41
2023/08/19 06:56:20;;;;;;;62.73;7.60;;;;;;;27.80;55.06;99582.69;7308585;19;130197;-39
2023/08/19 06:58:52;;;;;;;54.07;6.93;;;;;;;27.76;54.64;99581.41;7311489;19;129754;-38
2023/08/19 07:01:22;;;;;;;58.72;7.22;;;;;;;27.93;54.69;99586.38;7309705;19;130098;-33
2023/08/19 07:03:50;;;;;;;51.15;6.85;;;;;;;27.83;54.93;99582.34;7309566;19;128796;-39
2023/08/19 07:06:19;;;;;;;61.97;7.15;;;;;;;27.80;55.19;99585.34;7310135;19;129293;-39
2023/08/19 07:08:45;;;;;;;50.85;6.97;;;;;;;27.74;55.11;99581.59;7310589;19;130269;-41
2023/08/19 07:11:11;;;;;;;46.77;6.53;;;;;;;27.87;55.35;99583.59;7307654;19;131260;-38
2023/08/19 07:13:37;;;;;;;53.87;6.57;;;;;;;27.73;55.19;99587.06;7309583;19;128930;-40
2023/08/19 07:16:03;;;;;;;80.30;8.83;;;;;;;27.81;55.44;99590.44;7308191;19;131249;-38
2023/08/19 07:18:37;;;;;;;87.20;9.00;;;;;;;27.76;54.69;99587.50;7308958;19;132159;-40
2023/08/19 07:21:04;;;;;;;71.72;8.18;;;;;;;27.71;55.29;99599.63;7310705;19;129325;-39
2023/08/19 07:23:30;;;;;;;58.35;7.15;;;;;;;27.78;55.38;99595.25;7308995;19;129395;-41
2023/08/19 07:25:57;;;;;;;63.73;7.27;;;;;;;27.63;56.03;99595.22;7309346;19;129178;-38
2023/08/19 07:28:23;;;;;;;51.58;6.25;;;;;;;27.72;54.94;99601.25;7309935;19;129703;-41
2023/08/19 07:30:50;;;;;;;42.20;6.57;;;;;;;27.71;55.44;99600.44;7305514;19;131508;-39
2023/08/19 07:33:16;;;;;;;45.03;6.10;;;;;;;27.57;55.85;99609.13;7308618;19;129777;-37
2023/08/19 07:35:42;;;;;;;52.63;6.95;;;;;;;27.65;55.85;99600.34;7306225;19;130227;-38
2023/08/19 07:38:08;;;;;;;61.20;7.25;;;;;;;27.54;55.63;99608.66;7309744;19;130210;-40
2023/08/19 07:40:33;;;;;;;41.93;5.93;;;;;;;27.54;55.85;99608.66;7306951;19;129520;-40
2023/08/19 07:42:59;;;;;;;51.13;6.47;;;;;;;27.42;56.04;99599.53;7308567;19;129425;-40
2023/08/19 07:45:24;;;;;;;82.50;8.23;;;;;;;27.74;55.26;99607.16;7305759;19;129568;-42
2023/08/19 07:47:50;;;;;;;77.03;7.67;;;;;;;27.53;55.86;99613.16;7308537;19;129596;-39
2023/08/19 07:50:15;;;;;;;45.73;6.07;;;;;;;27.75;55.48;99616.75;7306460;19;129237;-38
2023/08/19 07:52:41;;;;;;;52.30;7.00;;;;;;;27.58;55.43;99618.72;7306614;19;129904;-37
2023/08/19 07:55:07;;;;;;;69.43;7.33;;;;;;;27.70;55.91;99619.91;7306964;19;129521;-39
2023/08/19 07:57:32;;;;;;;44.97;6.15;;;;;;;27.78;55.37;99621.69;7308552;19;129843;-37
2023/08/19 07:59:58;;;;;;;55.77;7.33;;;;;;;27.58;55.98;99615.25;7308574;19;129480;-39
2023/08/19 08:02:23;;;;;;;74.40;7.77;;;;;;;27.65;56.23;99626.75;7305606;19;131746;-41
2023/08/19 08:04:49;;;;;;;69.00;7.23;;;;;;;27.61;55.70;99621.00;7306917;19;129463;-41
2023/08/19 08:07:14;;;;;;;46.43;6.47;;;;;;;27.61;55.78;99622.81;7308908;19;130525;-41
2023/08/19 08:09:41;;;;;;;49.17;6.57;;;;;;;27.71;55.78;99621.56;7306869;19;131110;-40
2023/08/19 08:12:07;;;;;;;54.55;6.68;;;;;;;27.78;55.15;99617.19;7304557;19;129351;-39
2023/08/19 08:14:32;;;;;;;75.20;7.93;;;;;;;27.77;55.31;99620.03;7297985;19;131130;-41
2023/08/19 08:16:57;;;;;;;77.77;8.10;;;;;;;27.78;55.19;99624.31;7309374;19;130330;-40
2023/08/19 08:19:25;;;;;;;43.20;5.93;;;;;;;27.75;55.52;99624.69;7307981;19;129031;-36
2023/08/19 08:21:52;;;;;;;50.83;6.28;;;;;;;27.76;55.32;99618.38;7308359;19;129430;-39
2023/08/19 08:24:17;;;;;;;67.10;7.22;;;;;;;27.75;55.46;99628.13;7306582;19;130206;-39
2023/08/19 08:26:43;;;;;;;54.97;6.50;;;;;;;27.61;56.18;99610.44;7308813;19;130330;-40
2023/08/19 08:29:08;;;;;;;60.80;6.47;;;;;;;27.81;55.28;99622.16;7305804;19;129701;-38
2023/08/19 08:31:33;;;;;;;45.60;6.07;;;;;;;27.73;55.28;99618.75;7306456;19;129617;-40
2023/08/19 08:33:59;;;;;;;83.47;8.27;;;;;;;27.74;55.08;99610.66;7304792;19;131021;-39
2023/08/19 08:36:24;;;;;;;55.67;6.70;;;;;;;27.80;55.25;99614.41;7307786;19;129799;-42
2023/08/19 08:38:49;;;;;;;51.40;6.17;;;;;;;27.81;55.38;99610.75;7307657;19;130580;-37
2023/08/19 08:41:15;;;;;;;82.03;7.70;;;;;;;27.73;55.04;99613.47;7307388;19;130503;-39
2023/08/19 08:43:41;;;;;;;64.20;6.67;;;;;;;27.72;55.74;99617.09;7307234;19;130301;-37
2023/08/19 08:46:07;;;;;;;66.30;7.05;;;;;;;27.90;55.09;99594.66;7308821;19;130361;-38
2023/08/19 08:48:34;;;;;;;44.13;6.23;;;;;;;27.77;55.54;99609.44;7307820;19;129656;-40
2023/08/19 08:50:59;;;;;;;64.35;6.65;;;;;;;27.48;56.21;99610.22;7304881;19;129210;-36
2023/08/19 08:53:29;;;;;;;96.90;8.63;;;;;;;26.78;59.34;99609.47;7307289;19;129215;-38
2023/08/19 08:55:58;;;;;;;58.40;7.70;;;;;;;26.40;60.84;99612.91;7306004;19;129681;-42
2023/08/19 08:58:24;;;;;;;68.35;7.55;;;;;;;26.22;61.90;99609.69;7306027;19;129237;-36
2023/08/19 09:00:50;;;;;;;60.77;7.13;;;;;;;26.14;62.06;99612.34;7305850;19;129440;-36
2023/08/19 09:03:19;;;;;;;100.43;9.93;;;;;;;26.08;62.71;99620.09;7299583;19;129452;-36
2023/08/19 09:05:50;;;;;;;57.53;7.55;;;;;;;26.04;62.62;99616.97;7303943;19;130425;-34
2023/08/19 09:08:20;;;;;;;70.28;7.78;;;;;;;26.02;62.80;99620.75;7306408;19;129715;-39
2023/08/19 09:10:47;;;;;;;94.15;9.57;;;;;;;25.98;62.25;99617.59;7303245;19;129726;-39
2023/08/19 09:13:19;;;;;;;72.43;8.57;;;;;;;25.99;63.14;99624.53;7305520;19;130143;-43
2023/08/19 09:15:44;;;;;;;55.70;7.68;;;;;;;25.99;62.15;99615.78;7301180;19;130620;-42
2023/08/19 09:18:10;;;;;;;64.27;7.60;;;;;;;25.98;62.47;99617.59;7306024;19;129100;-40
2023/08/19 09:20:37;;;;;;;99.47;10.53;;;;;;;25.99;62.19;99621.06;7302188;19;129197;-41
2023/08/19 09:23:09;;;;;;;80.60;9.23;;;;;;;25.96;62.92;99611.69;7302930;19;129889;-38
2023/08/19 09:25:37;;;;;;;77.32;8.70;;;;;;;26.00;62.24;99614.81;7302139;19;130048;-39
2023/08/19 09:28:03;;;;;;;54.42;7.07;;;;;;;26.01;62.32;99616.44;7307008;19;129425;-41
2023/08/19 09:30:33;;;;;;;48.93;7.07;;;;;;;26.00;62.86;99625.34;7304642;19;129102;-38
2023/08/19 09:33:02;;;;;;;60.53;7.50;;;;;;;26.03;62.15;99619.78;7303395;19;129015;-37
2023/08/19 09:35:38;;;;;;;56.05;7.20;;;;;;;26.02;62.99;99613.66;7303224;19;130070;-38
2023/08/19 09:38:04;;;;;;;55.58;7.45;;;;;;;26.02;62.36;99612.84;7305951;19;129318;-40
2023/08/19 09:40:30;;;;;;;53.93;6.63;;;;;;;26.03;61.78;99615.31;7305982;19;129270;-40
2023/08/19 09:43:00;;;;;;;48.73;7.10;;;;;;;26.05;62.24;99617.81;7304641;19;129506;-41
2023/08/19 09:45:26;;;;;;;55.13;7.40;;;;;;;26.05;61.84;99610.69;7303495;19;129528;-41
2023/08/19 09:47:52;;;;;;;;;;;;;;;26.03;63.83;99612.66;7306113;19;128868;-40
2023/08/19 09:50:20;;;;;;;52.00;6.97;;;;;;;26.05;61.79;99608.06;7304417;19;129842;-40
2023/08/19 09:52:59;;;;;;;55.50;6.60;;;;;;;26.05;62.70;99610.69;7304815;19;129099;-40
2023/08/19 09:55:29;;;;;;;49.50;6.63;;;;;;;26.08;62.09;99604.28;7302548;19;130492;-42
2023/08/19 09:57:55;;;;;;;71.43;7.85;;;;;;;26.05;61.60;99613.31;7305412;19;129361;-42
2023/08/19 10:00:20;;;;;;;26.33;5.00;;;;;;;26.07;62.08;99605.25;7305574;19;129163;-39
2023/08/19 10:02:46;;;;;;;82.20;8.80;;;;;;;26.04;61.81;99609.06;7303365;19;130297;-39
2023/08/19 10:05:11;;;;;;;61.13;6.90;;;;;;;26.05;62.22;99602.78;7308159;19;131841;-40
2023/08/19 10:07:40;;;;;;;60.57;7.17;;;;;;;26.07;62.23;99606.09;7312234;19;129386;-38
2023/08/19 10:10:11;;;;;;;54.38;6.80;;;;;;;26.08;62.04;99601.66;7310920;19;129061;-40
2023/08/19 10:12:40;;;;;;;33.28;6.22;;;;;;;26.06;62.21;99601.81;7311923;19;129011;-40
2023/08/19 10:15:12;;;;;;;52.58;7.00;;;;;;;26.07;62.50;99599.97;7308936;19;129862;-39
2023/08/19 10:17:40;;;;;;;71.22;7.60;;;;;;;26.09;61.41;99606.75;7312214;19;129203;-40
2023/08/19 10:20:11;;;;;;;57.60;7.15;;;;;;;26.07;62.62;99606.09;7311007;19;129215;-39
2023/08/19 10:22:41;;;;;;;50.72;6.65;;;;;;;26.09;61.48;99601.47;7311605;19;129738;-37
2023/08/19 10:25:09;;;;;;;60.78;7.03;;;;;;;26.08;61.57;99599.81;7308901;19;129336;-37
2023/08/19 10:27:35;;;;;;;48.00;6.38;;;;;;;26.09;61.39;99604.13;7310972;19;129309;-39
2023/08/19 10:30:21;;;;;;;;;;;;;;;26.06;63.47;99604.47;7310198;19;128928;-36
2023/08/19 10:32:46;;;;;;;66.10;7.45;;;;;;;26.07;61.94;99600.81;7310396;19;129764;-34
2023/08/19 10:35:12;;;;;;;49.00;6.33;;;;;;;26.11;61.86;99601.31;7308898;19;129529;-40
2023/08/19 10:37:48;;;;;;;48.47;6.90;;;;;;;26.10;62.42;99605.75;7310612;19;129515;-35
2023/08/19 10:40:17;;;;;;;60.10;7.17;;;;;;;26.03;61.63;99593.44;7310799;19;129361;-37
2023/08/19 10:42:56;;;;;;;61.72;7.20;;;;;;;26.08;62.81;99599.81;7307574;19;131606;-38
2023/08/19 10:45:22;;;;;;;62.28;7.15;;;;;;;26.08;62.11;99602.44;7309118;19;129559;-38
2023/08/19 10:47:51;;;;;;;49.63;6.23;;;;;;;26.09;61.74;99600.66;7311214;19;128875;-36
2023/08/19 10:50:17;;;;;;;58.33;7.20;;;;;;;26.09;61.57;99596.22;7310342;19;129133;-39
2023/08/19 10:52:58;;;;;;;51.47;6.70;;;;;;;26.08;63.13;99596.38;7309412;19;130309;-40
2023/08/19 10:55:24;;;;;;;53.60;6.50;;;;;;;26.11;61.55;99596.88;7308880;19;130321;-39
2023/08/19 10:57:50;;;;;;;52.57;6.43;;;;;;;26.01;61.52;99587.47;7311266;19;130408;-38
2023/08/19 11:00:15;;;;;;;53.80;6.57;;;;;;;26.10;61.76;99600.47;7311517;19;129254;-37
2023/08/19 11:02:41;;;;;;;46.23;6.00;;;;;;;26.10;61.52;99594.41;7310081;19;130953;-39
2023/08/19 11:05:07;;;;;;;64.67;7.33;;;;;;;26.10;61.58;99600.47;7308355;19;129789;-36
2023/08/19 11:07:33;;;;;;;67.00;7.33;;;;;;;26.09;61.57;99598.84;7310883;19;129982;-36
2023/08/19 11:09:58;;;;;;;67.15;7.15;;;;;;;26.11;61.31;99596.03;7310122;19;129565;-37
2023/08/19 11:12:28;;;;;;;71.57;7.87;;;;;;;26.01;61.96;99584.81;7310419;19;130086;-36
2023/08/19 11:14:56;;;;;;;65.88;6.90;;;;;;;26.09;61.18;99596.22;7306874;19;129232;-38